sensor_id;sensor_type;location;lat;lon;timestamp;noise_LAeq;noise_LA_min;noise_LA_max;noise_LA01;noise_LA95
69613;Laerm;56819;52.382;4.758;2022-07-03T00:00:04;44.44;39.19;54.92;;
69613;Laerm;56819;52.382;4.758;2022-07-03T00:00:15;45.62;40.70;49.65;;
69613;Laerm;56819;52.382;4.758;2022-07-03T00:00:25;45.36;41.37;49.43;;
69613;Laerm;56819;52.382;4.758;2022-07-03T00:00:36;47.67;41.90;53.23;;
69613;Laerm;56819;52.382;4.758;2022-07-03T00:00:46;46.04;41.82;52.49;;
69613;Laerm;56819;52.382;4.758;2022-07-03T00:00:57;45.82;38.58;54.98;;
69613;Laerm;56819;52.382;4.758;2022-07-03T00:01:07;43.14;38.61;52.78;;
69613;Laerm;56819;52.382;4.758;2022-07-03T00:01:17;48.63;38.13;63.39;;
69613;Laerm;56819;52.382;4.758;2022-07-03T00:01:27;50.29;38.16;65.62;;
69613;Laerm;56819;52.382;4.758;2022-07-03T00:01:38;41.24;38.39;44.73;;
69613;Laerm;56819;52.382;4.758;2022-07-03T00:01:48;41.83;39.33;44.67;;
69613;Laerm;56819;52.382;4.758;2022-07-03T00:01:59;42.34;40.07;45.58;;
69613;Laerm;56819;52.382;4.758;2022-07-03T00:02:09;41.58;38.68;43.83;;
69613;Laerm;56819;52.382;4.758;2022-07-03T00:02:20;44.91;41.07;49.40;;
69613;Laerm;56819;52.382;4.758;2022-07-03T00:02:30;46.44;43.06;50.99;;
69613;Laerm;56819;52.382;4.758;2022-07-03T00:02:40;45.79;42.12;49.97;;
69613;Laerm;56819;52.382;4.758;2022-07-03T00:02:51;43.58;39.47;48.31;;
69613;Laerm;56819;52.382;4.758;2022-07-03T00:03:01;41.58;37.86;46.32;;
69613;Laerm;56819;52.382;4.758;2022-07-03T00:03:11;43.18;38.79;46.87;;
69613;Laerm;56819;52.382;4.758;2022-07-03T00:03:21;44.58;38.35;52.75;;
69613;Laerm;56819;52.382;4.758;2022-07-03T00:03:32;45.04;40.00;50.13;;
69613;Laerm;56819;52.382;4.758;2022-07-03T00:03:42;41.42;38.41;46.61;;
69613;Laerm;56819;52.382;4.758;2022-07-03T00:03:52;41.62;37.77;47.19;;
69613;Laerm;56819;52.382;4.758;2022-07-03T00:04:02;40.39;37.09;43.82;;
69613;Laerm;56819;52.382;4.758;2022-07-03T00:04:13;40.16;36.54;45.05;;
69613;Laerm;56819;52.382;4.758;2022-07-03T00:04:23;39.36;35.84;42.67;;
69613;Laerm;56819;52.382;4.758;2022-07-03T00:04:33;40.11;36.51;44.18;;
69613;Laerm;56819;52.382;4.758;2022-07-03T00:04:44;41.44;37.84;45.04;;
69613;Laerm;56819;52.382;4.758;2022-07-03T00:04:54;42.27;38.10;45.07;;
69613;Laerm;56819;52.382;4.758;2022-07-03T00:05:04;39.54;36.79;42.75;;
69613;Laerm;56819;52.382;4.758;2022-07-03T00:05:14;40.32;36.89;43.86;;
69613;Laerm;56819;52.382;4.758;2022-07-03T00:05:25;41.59;38.59;45.82;;
69613;Laerm;56819;52.382;4.758;2022-07-03T00:05:35;41.30;37.83;46.76;;
69613;Laerm;56819;52.382;4.758;2022-07-03T00:05:46;41.26;38.06;51.38;;
69613;Laerm;56819;52.382;4.758;2022-07-03T00:05:56;40.37;37.70;42.67;;
69613;Laerm;56819;52.382;4.758;2022-07-03T00:06:06;39.56;36.93;42.28;;
69613;Laerm;56819;52.382;4.758;2022-07-03T00:06:16;40.07;37.53;43.45;;
69613;Laerm;56819;52.382;4.758;2022-07-03T00:06:27;40.18;37.95;42.38;;
69613;Laerm;56819;52.382;4.758;2022-07-03T00:06:37;39.83;36.81;42.69;;
69613;Laerm;56819;52.382;4.758;2022-07-03T00:06:48;39.90;37.75;42.22;;
69613;Laerm;56819;52.382;4.758;2022-07-03T00:06:58;42.56;37.88;46.53;;
69613;Laerm;56819;52.382;4.758;2022-07-03T00:07:08;46.90;39.86;52.28;;
69613;Laerm;56819;52.382;4.758;2022-07-03T00:07:18;40.71;36.96;49.67;;
69613;Laerm;56819;52.382;4.758;2022-07-03T00:07:29;39.96;36.89;45.14;;
69613;Laerm;56819;52.382;4.758;2022-07-03T00:07:39;39.53;37.03;42.41;;
69613;Laerm;56819;52.382;4.758;2022-07-03T00:07:49;39.58;36.89;42.43;;
69613;Laerm;56819;52.382;4.758;2022-07-03T00:08:00;39.57;37.10;41.75;;
69613;Laerm;56819;52.382;4.758;2022-07-03T00:08:10;39.84;37.61;43.15;;
69613;Laerm;56819;52.382;4.758;2022-07-03T00:08:20;40.05;38.01;45.48;;
69613;Laerm;56819;52.382;4.758;2022-07-03T00:08:30;40.15;37.86;42.52;;
69613;Laerm;56819;52.382;4.758;2022-07-03T00:08:41;40.29;38.08;42.76;;
69613;Laerm;56819;52.382;4.758;2022-07-03T00:08:51;40.10;37.39;42.56;;
69613;Laerm;56819;52.382;4.758;2022-07-03T00:09:04;39.49;37.10;41.68;;
69613;Laerm;56819;52.382;4.758;2022-07-03T00:09:15;39.91;37.95;41.78;;
69613;Laerm;56819;52.382;4.758;2022-07-03T00:09:26;41.23;37.91;44.99;;
69613;Laerm;56819;52.382;4.758;2022-07-03T00:09:37;41.64;37.67;45.42;;
69613;Laerm;56819;52.382;4.758;2022-07-03T00:09:47;39.19;37.17;40.90;;
69613;Laerm;56819;52.382;4.758;2022-07-03T00:09:57;39.28;37.06;41.02;;
69613;Laerm;56819;52.382;4.758;2022-07-03T00:10:08;39.02;36.89;40.76;;
69613;Laerm;56819;52.382;4.758;2022-07-03T00:10:18;39.31;36.83;43.46;;
69613;Laerm;56819;52.382;4.758;2022-07-03T00:10:28;39.32;37.07;41.81;;
69613;Laerm;56819;52.382;4.758;2022-07-03T00:10:39;39.22;36.47;41.77;;
69613;Laerm;56819;52.382;4.758;2022-07-03T00:10:49;39.44;36.71;41.44;;
69613;Laerm;56819;52.382;4.758;2022-07-03T00:10:59;44.88;37.79;49.16;;
69613;Laerm;56819;52.382;4.758;2022-07-03T00:11:10;45.17;40.37;48.22;;
69613;Laerm;56819;52.382;4.758;2022-07-03T00:11:21;43.71;39.81;47.10;;
69613;Laerm;56819;52.382;4.758;2022-07-03T00:11:32;44.94;37.89;52.98;;
69613;Laerm;56819;52.382;4.758;2022-07-03T00:11:42;41.03;37.97;49.78;;
69613;Laerm;56819;52.382;4.758;2022-07-03T00:11:52;46.54;41.60;50.43;;
69613;Laerm;56819;52.382;4.758;2022-07-03T00:12:03;41.96;39.25;44.62;;
69613;Laerm;56819;52.382;4.758;2022-07-03T00:12:13;40.76;38.25;44.07;;
69613;Laerm;56819;52.382;4.758;2022-07-03T00:12:23;40.58;38.46;44.51;;
69613;Laerm;56819;52.382;4.758;2022-07-03T00:12:34;40.46;36.39;46.63;;
69613;Laerm;56819;52.382;4.758;2022-07-03T00:12:44;38.86;37.19;41.32;;
69613;Laerm;56819;52.382;4.758;2022-07-03T00:12:54;39.24;36.86;43.49;;
69613;Laerm;56819;52.382;4.758;2022-07-03T00:13:05;38.20;35.69;41.10;;
69613;Laerm;56819;52.382;4.758;2022-07-03T00:13:15;39.37;35.95;42.81;;
69613;Laerm;56819;52.382;4.758;2022-07-03T00:13:25;38.87;36.62;40.85;;
69613;Laerm;56819;52.382;4.758;2022-07-03T00:13:35;41.74;37.98;44.85;;
69613;Laerm;56819;52.382;4.758;2022-07-03T00:13:46;41.25;38.63;44.50;;
69613;Laerm;56819;52.382;4.758;2022-07-03T00:13:56;40.28;37.65;44.28;;
69613;Laerm;56819;52.382;4.758;2022-07-03T00:14:06;40.01;38.09;42.06;;
69613;Laerm;56819;52.382;4.758;2022-07-03T00:14:16;40.55;38.34;43.75;;
69613;Laerm;56819;52.382;4.758;2022-07-03T00:14:27;40.16;37.76;42.27;;
69613;Laerm;56819;52.382;4.758;2022-07-03T00:14:37;41.64;39.57;43.90;;
69613;Laerm;56819;52.382;4.758;2022-07-03T00:14:47;41.20;38.66;47.58;;
69613;Laerm;56819;52.382;4.758;2022-07-03T00:14:59;44.34;39.12;47.80;;
69613;Laerm;56819;52.382;4.758;2022-07-03T00:15:09;43.61;40.82;46.06;;
69613;Laerm;56819;52.382;4.758;2022-07-03T00:15:19;42.65;39.82;46.40;;
69613;Laerm;56819;52.382;4.758;2022-07-03T00:15:29;41.58;38.57;44.07;;
69613;Laerm;56819;52.382;4.758;2022-07-03T00:15:40;41.70;39.31;44.12;;
69613;Laerm;56819;52.382;4.758;2022-07-03T00:15:50;41.33;38.38;44.87;;
69613;Laerm;56819;52.382;4.758;2022-07-03T00:16:00;41.78;38.37;46.69;;
69613;Laerm;56819;52.382;4.758;2022-07-03T00:16:10;41.03;38.21;44.76;;
69613;Laerm;56819;52.382;4.758;2022-07-03T00:16:21;40.51;38.51;42.76;;
69613;Laerm;56819;52.382;4.758;2022-07-03T00:16:31;40.12;37.67;42.23;;
69613;Laerm;56819;52.382;4.758;2022-07-03T00:16:41;40.06;36.75;44.58;;
69613;Laerm;56819;52.382;4.758;2022-07-03T00:16:52;39.53;36.86;42.55;;
69613;Laerm;56819;52.382;4.758;2022-07-03T00:17:02;41.03;38.70;44.03;;
69613;Laerm;56819;52.382;4.758;2022-07-03T00:17:12;40.04;37.53;43.32;;
69613;Laerm;56819;52.382;4.758;2022-07-03T00:17:22;39.77;37.12;42.95;;
69613;Laerm;56819;52.382;4.758;2022-07-03T00:17:33;40.05;37.52;42.23;;
69613;Laerm;56819;52.382;4.758;2022-07-03T00:17:43;38.69;36.55;41.14;;
69613;Laerm;56819;52.382;4.758;2022-07-03T00:17:53;37.50;35.62;40.13;;
69613;Laerm;56819;52.382;4.758;2022-07-03T00:18:03;38.41;35.16;43.28;;
69613;Laerm;56819;52.382;4.758;2022-07-03T00:18:14;40.68;36.32;52.81;;
69613;Laerm;56819;52.382;4.758;2022-07-03T00:18:24;39.27;36.46;41.81;;
69613;Laerm;56819;52.382;4.758;2022-07-03T00:18:34;39.91;37.50;42.53;;
69613;Laerm;56819;52.382;4.758;2022-07-03T00:18:44;38.60;36.01;41.17;;
69613;Laerm;56819;52.382;4.758;2022-07-03T00:18:55;38.78;36.13;40.89;;
69613;Laerm;56819;52.382;4.758;2022-07-03T00:19:05;42.11;37.46;52.46;;
69613;Laerm;56819;52.382;4.758;2022-07-03T00:19:17;40.65;37.04;44.93;;
69613;Laerm;56819;52.382;4.758;2022-07-03T00:19:27;40.48;37.58;45.42;;
69613;Laerm;56819;52.382;4.758;2022-07-03T00:19:37;39.61;37.06;41.59;;
69613;Laerm;56819;52.382;4.758;2022-07-03T00:19:48;41.00;37.37;44.96;;
69613;Laerm;56819;52.382;4.758;2022-07-03T00:19:58;40.55;37.13;45.25;;
69613;Laerm;56819;52.382;4.758;2022-07-03T00:20:08;41.53;38.98;44.89;;
69613;Laerm;56819;52.382;4.758;2022-07-03T00:20:19;41.83;39.63;43.95;;
69613;Laerm;56819;52.382;4.758;2022-07-03T00:20:30;44.45;39.10;50.83;;
69613;Laerm;56819;52.382;4.758;2022-07-03T00:20:44;42.40;39.41;45.68;;
69613;Laerm;56819;52.382;4.758;2022-07-03T00:20:59;46.12;39.90;56.11;;
69613;Laerm;56819;52.382;4.758;2022-07-03T00:21:11;45.09;40.06;49.90;;
69613;Laerm;56819;52.382;4.758;2022-07-03T00:21:28;42.00;39.18;44.48;;
69613;Laerm;56819;52.382;4.758;2022-07-03T00:21:44;42.56;39.05;49.96;;
69613;Laerm;56819;52.382;4.758;2022-07-03T00:21:56;42.91;38.47;47.20;;
69613;Laerm;56819;52.382;4.758;2022-07-03T00:22:07;42.50;39.43;47.65;;
69613;Laerm;56819;52.382;4.758;2022-07-03T00:22:21;41.59;38.16;45.41;;
69613;Laerm;56819;52.382;4.758;2022-07-03T00:22:33;40.69;37.45;46.23;;
69613;Laerm;56819;52.382;4.758;2022-07-03T00:22:46;41.40;39.42;46.23;;
69613;Laerm;56819;52.382;4.758;2022-07-03T00:22:57;42.30;39.84;46.77;;
69613;Laerm;56819;52.382;4.758;2022-07-03T00:23:09;42.86;37.64;48.21;;
69613;Laerm;56819;52.382;4.758;2022-07-03T00:23:21;43.25;38.01;47.62;;
69613;Laerm;56819;52.382;4.758;2022-07-03T00:23:38;41.44;38.21;46.87;;
69613;Laerm;56819;52.382;4.758;2022-07-03T00:23:52;42.05;38.47;45.09;;
69613;Laerm;56819;52.382;4.758;2022-07-03T00:24:18;40.18;36.84;43.67;;
69613;Laerm;56819;52.382;4.758;2022-07-03T00:24:34;39.57;36.55;44.09;;
69613;Laerm;56819;52.382;4.758;2022-07-03T00:24:51;39.04;36.04;45.27;;
69613;Laerm;56819;52.382;4.758;2022-07-03T00:25:05;38.95;36.37;42.15;;
69613;Laerm;56819;52.382;4.758;2022-07-03T00:25:16;39.33;36.50;42.33;;
69613;Laerm;56819;52.382;4.758;2022-07-03T00:25:26;39.31;36.22;42.07;;
69613;Laerm;56819;52.382;4.758;2022-07-03T00:25:39;39.79;36.91;42.62;;
69613;Laerm;56819;52.382;4.758;2022-07-03T00:25:50;39.95;37.63;42.92;;
69613;Laerm;56819;52.382;4.758;2022-07-03T00:26:00;42.11;39.05;44.58;;
69613;Laerm;56819;52.382;4.758;2022-07-03T00:26:13;43.76;38.92;48.69;;
69613;Laerm;56819;52.382;4.758;2022-07-03T00:26:23;47.06;40.98;55.72;;
69613;Laerm;56819;52.382;4.758;2022-07-03T00:26:36;40.88;38.11;43.01;;
69613;Laerm;56819;52.382;4.758;2022-07-03T00:26:50;43.60;37.97;48.08;;
69613;Laerm;56819;52.382;4.758;2022-07-03T00:27:01;43.67;38.94;47.92;;
69613;Laerm;56819;52.382;4.758;2022-07-03T00:27:11;40.35;37.76;43.07;;
69613;Laerm;56819;52.382;4.758;2022-07-03T00:27:24;41.67;37.76;46.91;;
69613;Laerm;56819;52.382;4.758;2022-07-03T00:27:35;40.11;37.17;44.33;;
69613;Laerm;56819;52.382;4.758;2022-07-03T00:27:46;41.00;36.37;46.14;;
69613;Laerm;56819;52.382;4.758;2022-07-03T00:27:59;42.25;38.42;46.41;;
69613;Laerm;56819;52.382;4.758;2022-07-03T00:28:09;40.54;37.86;43.54;;
69613;Laerm;56819;52.382;4.758;2022-07-03T00:28:20;40.50;37.87;43.93;;
69613;Laerm;56819;52.382;4.758;2022-07-03T00:28:31;40.00;37.59;42.55;;
69613;Laerm;56819;52.382;4.758;2022-07-03T00:28:41;38.62;36.09;41.49;;
69613;Laerm;56819;52.382;4.758;2022-07-03T00:28:53;39.60;37.19;42.31;;
69613;Laerm;56819;52.382;4.758;2022-07-03T00:29:05;45.01;39.96;49.31;;
69613;Laerm;56819;52.382;4.758;2022-07-03T00:29:17;43.84;38.61;48.44;;
69613;Laerm;56819;52.382;4.758;2022-07-03T00:29:31;45.16;39.88;50.90;;
69613;Laerm;56819;52.382;4.758;2022-07-03T00:29:42;43.40;40.21;46.66;;
69613;Laerm;56819;52.382;4.758;2022-07-03T00:29:53;41.96;38.98;44.90;;
69613;Laerm;56819;52.382;4.758;2022-07-03T00:30:05;41.09;36.71;44.21;;
69613;Laerm;56819;52.382;4.758;2022-07-03T00:30:17;40.78;36.65;45.32;;
69613;Laerm;56819;52.382;4.758;2022-07-03T00:30:28;39.31;37.14;41.99;;
69613;Laerm;56819;52.382;4.758;2022-07-03T00:30:38;39.14;36.65;41.65;;
69613;Laerm;56819;52.382;4.758;2022-07-03T00:30:49;45.51;36.86;51.67;;
69613;Laerm;56819;52.382;4.758;2022-07-03T00:31:00;46.45;39.04;53.21;;
69613;Laerm;56819;52.382;4.758;2022-07-03T00:31:11;38.61;36.23;41.77;;
69613;Laerm;56819;52.382;4.758;2022-07-03T00:31:22;46.05;35.19;61.73;;
69613;Laerm;56819;52.382;4.758;2022-07-03T00:31:33;38.27;35.59;44.22;;
69613;Laerm;56819;52.382;4.758;2022-07-03T00:31:43;37.71;35.56;40.33;;
69613;Laerm;56819;52.382;4.758;2022-07-03T00:31:54;38.17;35.67;40.05;;
69613;Laerm;56819;52.382;4.758;2022-07-03T00:32:06;37.67;35.77;40.63;;
69613;Laerm;56819;52.382;4.758;2022-07-03T00:32:21;42.87;36.88;48.33;;
69613;Laerm;56819;52.382;4.758;2022-07-03T00:32:32;40.76;35.33;48.34;;
69613;Laerm;56819;52.382;4.758;2022-07-03T00:32:42;37.69;34.31;45.56;;
69613;Laerm;56819;52.382;4.758;2022-07-03T00:32:52;37.86;34.89;44.62;;
69613;Laerm;56819;52.382;4.758;2022-07-03T00:33:04;47.04;36.78;54.92;;
69613;Laerm;56819;52.382;4.758;2022-07-03T00:33:15;38.93;35.57;44.69;;
69613;Laerm;56819;52.382;4.758;2022-07-03T00:33:26;38.30;35.74;40.83;;
69613;Laerm;56819;52.382;4.758;2022-07-03T00:33:37;39.14;36.80;43.63;;
69613;Laerm;56819;52.382;4.758;2022-07-03T00:33:47;40.04;36.77;42.47;;
69613;Laerm;56819;52.382;4.758;2022-07-03T00:33:59;39.99;36.57;47.34;;
69613;Laerm;56819;52.382;4.758;2022-07-03T00:34:09;41.34;38.73;44.75;;
69613;Laerm;56819;52.382;4.758;2022-07-03T00:34:21;42.06;38.30;45.39;;
69613;Laerm;56819;52.382;4.758;2022-07-03T00:34:36;40.16;37.93;42.20;;
69613;Laerm;56819;52.382;4.758;2022-07-03T00:34:47;41.53;38.07;44.29;;
69613;Laerm;56819;52.382;4.758;2022-07-03T00:34:59;42.23;39.08;46.51;;
69613;Laerm;56819;52.382;4.758;2022-07-03T00:35:11;41.98;37.95;44.83;;
69613;Laerm;56819;52.382;4.758;2022-07-03T00:35:25;39.15;36.31;42.36;;
69613;Laerm;56819;52.382;4.758;2022-07-03T00:35:36;38.28;36.18;40.34;;
69613;Laerm;56819;52.382;4.758;2022-07-03T00:35:49;36.74;34.17;40.31;;
69613;Laerm;56819;52.382;4.758;2022-07-03T00:36:03;35.84;33.64;40.11;;
69613;Laerm;56819;52.382;4.758;2022-07-03T00:36:13;37.75;34.44;41.77;;
69613;Laerm;56819;52.382;4.758;2022-07-03T00:36:25;38.82;36.66;41.04;;
69613;Laerm;56819;52.382;4.758;2022-07-03T00:36:36;47.77;36.47;57.00;;
69613;Laerm;56819;52.382;4.758;2022-07-03T00:36:47;42.78;38.32;48.15;;
69613;Laerm;56819;52.382;4.758;2022-07-03T00:36:58;40.47;37.62;43.85;;
69613;Laerm;56819;52.382;4.758;2022-07-03T00:37:10;40.00;36.29;44.53;;
69613;Laerm;56819;52.382;4.758;2022-07-03T00:37:20;38.44;35.94;41.76;;
69613;Laerm;56819;52.382;4.758;2022-07-03T00:37:31;38.39;36.00;40.73;;
69613;Laerm;56819;52.382;4.758;2022-07-03T00:37:41;38.51;35.86;40.89;;
69613;Laerm;56819;52.382;4.758;2022-07-03T00:37:51;41.81;36.90;47.57;;
69613;Laerm;56819;52.382;4.758;2022-07-03T00:38:02;43.26;39.05;47.42;;
69613;Laerm;56819;52.382;4.758;2022-07-03T00:38:12;41.92;38.22;45.59;;
69613;Laerm;56819;52.382;4.758;2022-07-03T00:38:23;40.16;36.45;44.41;;
69613;Laerm;56819;52.382;4.758;2022-07-03T00:38:33;38.13;35.88;40.91;;
69613;Laerm;56819;52.382;4.758;2022-07-03T00:38:44;38.07;35.91;40.26;;
69613;Laerm;56819;52.382;4.758;2022-07-03T00:38:54;37.85;35.38;41.30;;
69613;Laerm;56819;52.382;4.758;2022-07-03T00:39:04;38.65;35.43;42.93;;
69613;Laerm;56819;52.382;4.758;2022-07-03T00:39:15;37.33;34.62;42.56;;
69613;Laerm;56819;52.382;4.758;2022-07-03T00:39:25;38.66;34.89;43.25;;
69613;Laerm;56819;52.382;4.758;2022-07-03T00:39:36;39.16;36.98;41.31;;
69613;Laerm;56819;52.382;4.758;2022-07-03T00:39:48;39.89;37.63;41.89;;
69613;Laerm;56819;52.382;4.758;2022-07-03T00:39:58;40.65;37.56;43.46;;
69613;Laerm;56819;52.382;4.758;2022-07-03T00:40:09;39.46;36.87;41.82;;
69613;Laerm;56819;52.382;4.758;2022-07-03T00:40:20;40.28;37.42;43.33;;
69613;Laerm;56819;52.382;4.758;2022-07-03T00:40:30;40.47;37.99;43.06;;
69613;Laerm;56819;52.382;4.758;2022-07-03T00:40:40;41.52;38.01;45.17;;
69613;Laerm;56819;52.382;4.758;2022-07-03T00:40:51;42.71;39.60;49.58;;
69613;Laerm;56819;52.382;4.758;2022-07-03T00:41:02;41.04;37.01;46.27;;
69613;Laerm;56819;52.382;4.758;2022-07-03T00:41:25;39.21;36.47;42.83;;
69613;Laerm;56819;52.382;4.758;2022-07-03T00:41:36;40.14;36.14;49.98;;
69613;Laerm;56819;52.382;4.758;2022-07-03T00:41:46;43.30;39.68;47.75;;
69613;Laerm;56819;52.382;4.758;2022-07-03T00:42:09;40.69;36.85;44.38;;
69613;Laerm;56819;52.382;4.758;2022-07-03T00:42:19;39.50;36.78;42.57;;
69613;Laerm;56819;52.382;4.758;2022-07-03T00:42:30;39.47;36.53;43.05;;
69613;Laerm;56819;52.382;4.758;2022-07-03T00:42:40;44.28;40.94;47.13;;
69613;Laerm;56819;52.382;4.758;2022-07-03T00:42:51;42.87;38.59;47.01;;
69613;Laerm;56819;52.382;4.758;2022-07-03T00:43:04;40.27;37.72;42.28;;
69613;Laerm;56819;52.382;4.758;2022-07-03T00:43:15;40.84;38.63;44.46;;
69613;Laerm;56819;52.382;4.758;2022-07-03T00:43:25;44.18;39.77;47.96;;
69613;Laerm;56819;52.382;4.758;2022-07-03T00:43:36;43.34;40.42;45.35;;
69613;Laerm;56819;52.382;4.758;2022-07-03T00:43:47;43.38;39.28;48.48;;
69613;Laerm;56819;52.382;4.758;2022-07-03T00:43:57;42.79;38.48;45.55;;
69613;Laerm;56819;52.382;4.758;2022-07-03T00:44:07;43.11;40.10;47.06;;
69613;Laerm;56819;52.382;4.758;2022-07-03T00:44:18;44.56;39.89;47.12;;
69613;Laerm;56819;52.382;4.758;2022-07-03T00:44:29;41.29;37.35;44.42;;
69613;Laerm;56819;52.382;4.758;2022-07-03T00:44:45;38.73;36.79;41.96;;
69613;Laerm;56819;52.382;4.758;2022-07-03T00:44:56;38.48;36.58;40.62;;
69613;Laerm;56819;52.382;4.758;2022-07-03T00:45:07;38.14;35.67;40.44;;
69613;Laerm;56819;52.382;4.758;2022-07-03T00:45:19;37.89;35.51;40.02;;
69613;Laerm;56819;52.382;4.758;2022-07-03T00:45:32;38.10;35.92;40.81;;
69613;Laerm;56819;52.382;4.758;2022-07-03T00:45:47;38.98;35.65;42.53;;
69613;Laerm;56819;52.382;4.758;2022-07-03T00:46:03;41.15;37.87;44.78;;
69613;Laerm;56819;52.382;4.758;2022-07-03T00:46:17;40.11;37.37;42.79;;
69613;Laerm;56819;52.382;4.758;2022-07-03T00:46:27;42.45;37.01;46.67;;
69613;Laerm;56819;52.382;4.758;2022-07-03T00:46:38;40.14;37.36;42.37;;
69613;Laerm;56819;52.382;4.758;2022-07-03T00:46:49;43.94;37.97;48.86;;
69613;Laerm;56819;52.382;4.758;2022-07-03T00:47:02;42.88;39.16;45.50;;
69613;Laerm;56819;52.382;4.758;2022-07-03T00:47:14;40.96;37.40;43.56;;
69613;Laerm;56819;52.382;4.758;2022-07-03T00:47:26;37.32;35.31;39.98;;
69613;Laerm;56819;52.382;4.758;2022-07-03T00:47:37;36.27;34.46;39.06;;
69613;Laerm;56819;52.382;4.758;2022-07-03T00:47:48;36.77;34.81;38.83;;
69613;Laerm;56819;52.382;4.758;2022-07-03T00:48:00;38.17;34.91;46.43;;
69613;Laerm;56819;52.382;4.758;2022-07-03T00:48:12;45.79;37.91;52.06;;
69613;Laerm;56819;52.382;4.758;2022-07-03T00:48:25;39.90;35.90;45.99;;
69613;Laerm;56819;52.382;4.758;2022-07-03T00:48:36;37.87;35.15;41.38;;
69613;Laerm;56819;52.382;4.758;2022-07-03T00:48:58;37.76;35.44;40.40;;
69613;Laerm;56819;52.382;4.758;2022-07-03T00:49:09;38.18;36.09;40.15;;
69613;Laerm;56819;52.382;4.758;2022-07-03T00:49:22;38.94;37.21;42.20;;
69613;Laerm;56819;52.382;4.758;2022-07-03T00:49:33;39.23;36.75;42.47;;
69613;Laerm;56819;52.382;4.758;2022-07-03T00:49:49;39.81;36.35;42.43;;
69613;Laerm;56819;52.382;4.758;2022-07-03T00:50:06;39.24;35.94;45.85;;
69613;Laerm;56819;52.382;4.758;2022-07-03T00:50:17;42.50;37.94;47.40;;
69613;Laerm;56819;52.382;4.758;2022-07-03T00:50:35;43.67;39.26;46.93;;
69613;Laerm;56819;52.382;4.758;2022-07-03T00:50:50;39.49;36.08;42.46;;
69613;Laerm;56819;52.382;4.758;2022-07-03T00:51:00;41.65;36.54;47.84;;
69613;Laerm;56819;52.382;4.758;2022-07-03T00:51:14;45.76;41.07;49.90;;
69613;Laerm;56819;52.382;4.758;2022-07-03T00:51:27;39.29;36.10;45.22;;
69613;Laerm;56819;52.382;4.758;2022-07-03T00:51:39;38.66;35.97;41.73;;
69613;Laerm;56819;52.382;4.758;2022-07-03T00:51:52;39.06;35.39;46.82;;
69613;Laerm;56819;52.382;4.758;2022-07-03T00:52:03;36.27;34.26;39.02;;
69613;Laerm;56819;52.382;4.758;2022-07-03T00:52:15;37.31;34.51;40.02;;
69613;Laerm;56819;52.382;4.758;2022-07-03T00:52:26;37.04;35.06;39.53;;
69613;Laerm;56819;52.382;4.758;2022-07-03T00:52:44;36.90;34.62;39.61;;
69613;Laerm;56819;52.382;4.758;2022-07-03T00:52:55;37.27;34.52;41.55;;
69613;Laerm;56819;52.382;4.758;2022-07-03T00:53:07;35.57;33.24;39.73;;
69613;Laerm;56819;52.382;4.758;2022-07-03T00:53:29;41.69;33.94;60.15;;
69613;Laerm;56819;52.382;4.758;2022-07-03T00:53:42;37.33;34.06;40.76;;
69613;Laerm;56819;52.382;4.758;2022-07-03T00:53:56;37.15;34.30;40.04;;
69613;Laerm;56819;52.382;4.758;2022-07-03T00:54:07;37.22;33.99;41.03;;
69613;Laerm;56819;52.382;4.758;2022-07-03T00:54:21;38.48;35.90;41.45;;
69613;Laerm;56819;52.382;4.758;2022-07-03T00:54:33;37.13;34.52;41.26;;
69613;Laerm;56819;52.382;4.758;2022-07-03T00:54:55;36.13;33.81;39.65;;
69613;Laerm;56819;52.382;4.758;2022-07-03T00:55:06;37.52;34.72;40.12;;
69613;Laerm;56819;52.382;4.758;2022-07-03T00:55:18;38.12;35.32;41.68;;
69613;Laerm;56819;52.382;4.758;2022-07-03T00:55:32;37.73;35.53;44.66;;
69613;Laerm;56819;52.382;4.758;2022-07-03T00:55:46;41.60;35.98;44.87;;
69613;Laerm;56819;52.382;4.758;2022-07-03T00:55:57;42.74;35.25;47.92;;
69613;Laerm;56819;52.382;4.758;2022-07-03T00:56:09;39.24;36.37;44.82;;
69613;Laerm;56819;52.382;4.758;2022-07-03T00:56:29;37.76;35.47;40.61;;
69613;Laerm;56819;52.382;4.758;2022-07-03T00:56:40;37.57;34.28;46.95;;
69613;Laerm;56819;52.382;4.758;2022-07-03T00:56:52;35.81;33.49;37.77;;
69613;Laerm;56819;52.382;4.758;2022-07-03T00:57:04;35.80;33.85;37.68;;
69613;Laerm;56819;52.382;4.758;2022-07-03T00:57:19;37.00;34.18;39.63;;
69613;Laerm;56819;52.382;4.758;2022-07-03T00:57:31;36.31;33.63;39.94;;
69613;Laerm;56819;52.382;4.758;2022-07-03T00:57:46;37.11;34.50;40.98;;
69613;Laerm;56819;52.382;4.758;2022-07-03T00:57:57;37.66;34.61;42.76;;
69613;Laerm;56819;52.382;4.758;2022-07-03T00:58:07;38.79;35.75;41.82;;
69613;Laerm;56819;52.382;4.758;2022-07-03T00:58:18;40.99;37.93;44.91;;
69613;Laerm;56819;52.382;4.758;2022-07-03T00:58:28;41.27;37.32;46.01;;
69613;Laerm;56819;52.382;4.758;2022-07-03T00:58:41;48.51;43.12;53.34;;
69613;Laerm;56819;52.382;4.758;2022-07-03T00:58:52;40.17;35.23;51.18;;
69613;Laerm;56819;52.382;4.758;2022-07-03T00:59:03;38.25;35.82;40.84;;
69613;Laerm;56819;52.382;4.758;2022-07-03T00:59:15;40.10;37.10;43.48;;
69613;Laerm;56819;52.382;4.758;2022-07-03T00:59:26;39.48;35.13;44.42;;
69613;Laerm;56819;52.382;4.758;2022-07-03T00:59:37;38.81;35.29;42.16;;
69613;Laerm;56819;52.382;4.758;2022-07-03T00:59:48;40.06;36.85;43.57;;
69613;Laerm;56819;52.382;4.758;2022-07-03T00:59:58;39.74;35.62;43.24;;
69613;Laerm;56819;52.382;4.758;2022-07-03T01:00:12;39.67;35.02;45.50;;
69613;Laerm;56819;52.382;4.758;2022-07-03T01:00:24;37.90;34.51;43.05;;
69613;Laerm;56819;52.382;4.758;2022-07-03T01:00:38;37.52;34.43;41.47;;
69613;Laerm;56819;52.382;4.758;2022-07-03T01:00:51;39.27;34.94;45.15;;
69613;Laerm;56819;52.382;4.758;2022-07-03T01:01:03;39.94;36.85;45.36;;
69613;Laerm;56819;52.382;4.758;2022-07-03T01:01:16;38.44;34.12;44.72;;
69613;Laerm;56819;52.382;4.758;2022-07-03T01:01:29;48.75;33.53;62.18;;
69613;Laerm;56819;52.382;4.758;2022-07-03T01:01:40;40.06;33.99;44.80;;
69613;Laerm;56819;52.382;4.758;2022-07-03T01:01:53;40.39;35.85;44.04;;
69613;Laerm;56819;52.382;4.758;2022-07-03T01:02:06;36.97;33.06;41.23;;
69613;Laerm;56819;52.382;4.758;2022-07-03T01:02:28;36.23;33.88;40.20;;
69613;Laerm;56819;52.382;4.758;2022-07-03T01:02:46;36.99;34.05;40.59;;
69613;Laerm;56819;52.382;4.758;2022-07-03T01:03:05;38.11;34.70;42.73;;
69613;Laerm;56819;52.382;4.758;2022-07-03T01:03:18;44.27;38.36;49.40;;
69613;Laerm;56819;52.382;4.758;2022-07-03T01:03:32;40.19;35.74;47.35;;
69613;Laerm;56819;52.382;4.758;2022-07-03T01:03:44;37.63;34.94;40.53;;
69613;Laerm;56819;52.382;4.758;2022-07-03T01:04:03;40.20;34.89;47.35;;
69613;Laerm;56819;52.382;4.758;2022-07-03T01:04:49;39.15;34.89;44.18;;
69613;Laerm;56819;52.382;4.758;2022-07-03T01:05:48;41.71;34.75;49.51;;
69613;Laerm;56819;52.382;4.758;2022-07-03T01:06:01;39.01;35.26;42.32;;
69613;Laerm;56819;52.382;4.758;2022-07-03T01:06:13;38.20;34.91;43.01;;
69613;Laerm;56819;52.382;4.758;2022-07-03T01:06:25;39.40;35.48;45.03;;
69613;Laerm;56819;52.382;4.758;2022-07-03T01:06:39;39.11;36.29;46.21;;
69613;Laerm;56819;52.382;4.758;2022-07-03T01:07:37;39.92;37.19;42.57;;